Alder, Montana
Current Conditions -  °F | °C
As of 12:53 AM on Sunday 21 Dec 2014 (Local Time) from KDLN Reporting Station
Overcast Overcast  
Wind Chill: 29°   Ceiling: 5000
Heat Index: 34°   Visibility: 10mi
Dew Point: 27°   Wind: 6mph
Humidity: 75%   Direction: 240°WSW
Pressure: 29.68"   Gusts: NA
Location:  45.32°N, 112.11°W
Report Text: KDLN 210753Z AUTO 24005KT 10SM FEW043 OVC050 01/M03 A2968 RMK AO2 SLP059 T00111028
Loading
Personal Weather Stations






























Interactive Weather Map New forecast layout! Learn more

10-Day Weather Forecast

Advertisements
Track Severe Weather on mobile